sensor_id;sensor_type;location;lat;lon;timestamp;pressure;altitude;pressure_sealevel;temperature;humidity
2711;BME280;20721;47.402;8.550;2022-08-01T00:00:23;96259;;;23.15;48.26
2711;BME280;20721;47.402;8.550;2022-08-01T00:01:23;96258;;;23.19;48.49
2711;BME280;20721;47.402;8.550;2022-08-01T00:02:23;96258;;;23.25;48.51
2711;BME280;20721;47.402;8.550;2022-08-01T00:03:23;96259;;;23.31;48.21
2711;BME280;20721;47.402;8.550;2022-08-01T00:04:23;96254;;;23.39;48.16
2711;BME280;20721;47.402;8.550;2022-08-01T00:05:23;96255;;;23.44;48.11
2711;BME280;20721;47.402;8.550;2022-08-01T00:06:27;96255;;;23.49;47.84
2711;BME280;20721;47.402;8.550;2022-08-01T00:07:23;96252;;;23.52;47.39
2711;BME280;20721;47.402;8.550;2022-08-01T00:08:23;96251;;;23.55;47.57
2711;BME280;20721;47.402;8.550;2022-08-01T00:09:24;96254;;;23.57;47.19
2711;BME280;20721;47.402;8.550;2022-08-01T00:10:24;96251;;;23.59;47.11
2711;BME280;20721;47.402;8.550;2022-08-01T00:11:23;96250;;;23.60;47.67
2711;BME280;20721;47.402;8.550;2022-08-01T00:12:23;96250;;;23.63;47.92
2711;BME280;20721;47.402;8.550;2022-08-01T00:13:23;96249;;;23.65;47.72
2711;BME280;20721;47.402;8.550;2022-08-01T00:14:32;96252;;;23.67;47.43
2711;BME280;20721;47.402;8.550;2022-08-01T00:15:23;96249;;;23.70;47.38
2711;BME280;20721;47.402;8.550;2022-08-01T00:16:23;96252;;;23.75;47.28
2711;BME280;20721;47.402;8.550;2022-08-01T00:17:23;96251;;;23.79;47.41
2711;BME280;20721;47.402;8.550;2022-08-01T00:18:23;96253;;;23.82;47.44
2711;BME280;20721;47.402;8.550;2022-08-01T00:19:23;96254;;;23.83;47.20
2711;BME280;20721;47.402;8.550;2022-08-01T00:20:23;96252;;;23.80;47.24
2711;BME280;20721;47.402;8.550;2022-08-01T00:21:23;96253;;;23.79;47.32
2711;BME280;20721;47.402;8.550;2022-08-01T00:22:23;96258;;;23.77;47.15
2711;BME280;20721;47.402;8.550;2022-08-01T00:23:23;96254;;;23.73;47.41
2711;BME280;20721;47.402;8.550;2022-08-01T00:24:23;96258;;;23.70;47.59
2711;BME280;20721;47.402;8.550;2022-08-01T00:25:33;96261;;;23.66;47.59
2711;BME280;20721;47.402;8.550;2022-08-01T00:26:23;96261;;;23.63;47.71
2711;BME280;20721;47.402;8.550;2022-08-01T00:27:23;96259;;;23.59;47.87
2711;BME280;20721;47.402;8.550;2022-08-01T00:28:23;96260;;;23.56;47.98
2711;BME280;20721;47.402;8.550;2022-08-01T00:29:33;96258;;;23.50;48.29
2711;BME280;20721;47.402;8.550;2022-08-01T00:30:23;96257;;;23.47;48.18
2711;BME280;20721;47.402;8.550;2022-08-01T00:31:23;96255;;;23.45;48.05
2711;BME280;20721;47.402;8.550;2022-08-01T00:34:23;96260;;;23.48;48.35
2711;BME280;20721;47.402;8.550;2022-08-01T00:35:23;96260;;;23.51;48.19
2711;BME280;20721;47.402;8.550;2022-08-01T00:36:23;96262;;;23.54;48.15
2711;BME280;20721;47.402;8.550;2022-08-01T00:39:23;96266;;;23.52;48.11
2711;BME280;20721;47.402;8.550;2022-08-01T00:40:23;96267;;;23.49;48.39
2711;BME280;20721;47.402;8.550;2022-08-01T00:41:23;96263;;;23.46;48.31
2711;BME280;20721;47.402;8.550;2022-08-01T00:42:23;96262;;;23.42;48.39
2711;BME280;20721;47.402;8.550;2022-08-01T00:43:27;96263;;;23.40;48.45
2711;BME280;20721;47.402;8.550;2022-08-01T00:45:23;96259;;;23.36;48.68
2711;BME280;20721;47.402;8.550;2022-08-01T00:46:23;96261;;;23.37;48.62
2711;BME280;20721;47.402;8.550;2022-08-01T00:48:23;96258;;;23.34;48.70
2711;BME280;20721;47.402;8.550;2022-08-01T00:49:23;96259;;;23.31;48.73
2711;BME280;20721;47.402;8.550;2022-08-01T00:50:25;96261;;;23.30;48.81
2711;BME280;20721;47.402;8.550;2022-08-01T00:51:23;96260;;;23.32;48.89
2711;BME280;20721;47.402;8.550;2022-08-01T00:52:23;96261;;;23.33;48.86
2711;BME280;20721;47.402;8.550;2022-08-01T00:53:26;96259;;;23.35;49.09
2711;BME280;20721;47.402;8.550;2022-08-01T00:55:23;96258;;;23.31;49.24
2711;BME280;20721;47.402;8.550;2022-08-01T00:56:24;96260;;;23.28;49.33
2711;BME280;20721;47.402;8.550;2022-08-01T00:57:33;96259;;;23.26;49.38
2711;BME280;20721;47.402;8.550;2022-08-01T00:58:24;96259;;;23.24;49.50
2711;BME280;20721;47.402;8.550;2022-08-01T00:59:23;96261;;;23.25;49.39
2711;BME280;20721;47.402;8.550;2022-08-01T01:00:27;96258;;;23.23;49.60
2711;BME280;20721;47.402;8.550;2022-08-01T01:01:23;96259;;;23.25;49.57
2711;BME280;20721;47.402;8.550;2022-08-01T01:03:33;96260;;;23.29;49.28
2711;BME280;20721;47.402;8.550;2022-08-01T01:04:23;96259;;;23.31;49.32
2711;BME280;20721;47.402;8.550;2022-08-01T01:05:23;96259;;;23.34;49.15
2711;BME280;20721;47.402;8.550;2022-08-01T01:06:25;96264;;;23.36;49.15
2711;BME280;20721;47.402;8.550;2022-08-01T01:08:24;96261;;;23.39;49.11
2711;BME280;20721;47.402;8.550;2022-08-01T01:09:30;96263;;;23.42;49.00
2711;BME280;20721;47.402;8.550;2022-08-01T01:10:27;96261;;;23.46;48.95
2711;BME280;20721;47.402;8.550;2022-08-01T01:11:28;96267;;;23.48;48.83
2711;BME280;20721;47.402;8.550;2022-08-01T01:12:27;96269;;;23.50;48.83
2711;BME280;20721;47.402;8.550;2022-08-01T01:13:26;96269;;;23.48;48.83
2711;BME280;20721;47.402;8.550;2022-08-01T01:14:27;96273;;;23.47;48.93
2711;BME280;20721;47.402;8.550;2022-08-01T01:15:29;96274;;;23.43;48.92
2711;BME280;20721;47.402;8.550;2022-08-01T01:16:23;96273;;;23.42;49.04
2711;BME280;20721;47.402;8.550;2022-08-01T01:18:05;96273;;;23.40;49.19
2711;BME280;20721;47.402;8.550;2022-08-01T01:18:24;96272;;;23.39;49.11
2711;BME280;20721;47.402;8.550;2022-08-01T01:19:24;96271;;;23.36;49.17
2711;BME280;20721;47.402;8.550;2022-08-01T01:20:30;96273;;;23.31;49.28
2711;BME280;20721;47.402;8.550;2022-08-01T01:26:27;96267;;;23.17;50.07
2711;BME280;20721;47.402;8.550;2022-08-01T01:27:28;96266;;;23.18;49.86
2711;BME280;20721;47.402;8.550;2022-08-01T01:29:25;96265;;;23.23;49.46
2711;BME280;20721;47.402;8.550;2022-08-01T01:32:35;96263;;;23.24;49.29
2711;BME280;20721;47.402;8.550;2022-08-01T01:33:23;96261;;;23.26;49.31
2711;BME280;20721;47.402;8.550;2022-08-01T01:34:24;96261;;;23.28;49.34
2711;BME280;20721;47.402;8.550;2022-08-01T01:35:24;96261;;;23.30;49.16
2711;BME280;20721;47.402;8.550;2022-08-01T01:36:23;96258;;;23.31;49.28
2711;BME280;20721;47.402;8.550;2022-08-01T01:37:23;96260;;;23.30;48.98
2711;BME280;20721;47.402;8.550;2022-08-01T01:38:24;96257;;;23.26;49.08
2711;BME280;20721;47.402;8.550;2022-08-01T01:39:23;96258;;;23.25;49.05
2711;BME280;20721;47.402;8.550;2022-08-01T01:40:23;96256;;;23.28;49.08
2711;BME280;20721;47.402;8.550;2022-08-01T01:41:23;96259;;;23.29;49.17
2711;BME280;20721;47.402;8.550;2022-08-01T01:42:23;96258;;;23.22;49.25
2711;BME280;20721;47.402;8.550;2022-08-01T01:43:33;96260;;;23.09;49.39
2711;BME280;20721;47.402;8.550;2022-08-01T01:44:23;96256;;;22.97;49.39
2711;BME280;20721;47.402;8.550;2022-08-01T01:45:23;96260;;;22.84;49.53
2711;BME280;20721;47.402;8.550;2022-08-01T01:46:23;96262;;;22.77;49.72
2711;BME280;20721;47.402;8.550;2022-08-01T01:47:23;96258;;;22.72;49.69
2711;BME280;20721;47.402;8.550;2022-08-01T01:48:23;96255;;;22.68;49.85
2711;BME280;20721;47.402;8.550;2022-08-01T01:49:24;96258;;;22.70;49.92
2711;BME280;20721;47.402;8.550;2022-08-01T01:50:24;96255;;;22.74;49.85
2711;BME280;20721;47.402;8.550;2022-08-01T01:51:24;96256;;;22.78;49.73
2711;BME280;20721;47.402;8.550;2022-08-01T01:53:23;96260;;;22.75;49.68
2711;BME280;20721;47.402;8.550;2022-08-01T01:54:24;96260;;;22.69;49.74
2711;BME280;20721;47.402;8.550;2022-08-01T01:55:23;96260;;;22.65;50.07
2711;BME280;20721;47.402;8.550;2022-08-01T01:56:23;96265;;;22.61;50.10
2711;BME280;20721;47.402;8.550;2022-08-01T01:57:27;96263;;;22.59;50.16
2711;BME280;20721;47.402;8.550;2022-08-01T01:58:23;96265;;;22.54;50.26
2711;BME280;20721;47.402;8.550;2022-08-01T01:59:27;96261;;;22.51;50.31
2711;BME280;20721;47.402;8.550;2022-08-01T02:00:23;96264;;;22.48;50.49
2711;BME280;20721;47.402;8.550;2022-08-01T02:01:33;96267;;;22.47;50.54
2711;BME280;20721;47.402;8.550;2022-08-01T02:02:23;96270;;;22.45;50.75
2711;BME280;20721;47.402;8.550;2022-08-01T02:03:23;96266;;;22.42;50.95
2711;BME280;20721;47.402;8.550;2022-08-01T02:06:24;96266;;;22.45;50.65
2711;BME280;20721;47.402;8.550;2022-08-01T02:07:24;96269;;;22.48;50.70
2711;BME280;20721;47.402;8.550;2022-08-01T02:08:23;96267;;;22.52;50.58
2711;BME280;20721;47.402;8.550;2022-08-01T02:09:23;96268;;;22.53;50.43
2711;BME280;20721;47.402;8.550;2022-08-01T02:10:29;96265;;;22.55;50.67
2711;BME280;20721;47.402;8.550;2022-08-01T02:11:23;96270;;;22.53;50.68
2711;BME280;20721;47.402;8.550;2022-08-01T02:12:23;96268;;;22.54;50.53
2711;BME280;20721;47.402;8.550;2022-08-01T02:14:23;96268;;;22.56;50.65
2711;BME280;20721;47.402;8.550;2022-08-01T02:15:23;96265;;;22.55;50.69
2711;BME280;20721;47.402;8.550;2022-08-01T02:17:23;96267;;;22.57;50.76
2711;BME280;20721;47.402;8.550;2022-08-01T02:18:24;96267;;;22.59;50.76
2711;BME280;20721;47.402;8.550;2022-08-01T02:19:23;96268;;;22.62;50.80
2711;BME280;20721;47.402;8.550;2022-08-01T02:20:24;96266;;;22.65;50.39
2711;BME280;20721;47.402;8.550;2022-08-01T02:21:27;96267;;;22.66;50.21
2711;BME280;20721;47.402;8.550;2022-08-01T02:24:35;96265;;;22.62;50.55
2711;BME280;20721;47.402;8.550;2022-08-01T02:25:25;96264;;;22.58;50.79
2711;BME280;20721;47.402;8.550;2022-08-01T02:26:23;96270;;;22.56;50.79
2711;BME280;20721;47.402;8.550;2022-08-01T02:27:24;96265;;;22.51;51.04
2711;BME280;20721;47.402;8.550;2022-08-01T02:28:29;96269;;;22.49;51.07
2711;BME280;20721;47.402;8.550;2022-08-01T02:29:27;96269;;;22.51;51.04
2711;BME280;20721;47.402;8.550;2022-08-01T02:31:23;96271;;;22.50;51.24
2711;BME280;20721;47.402;8.550;2022-08-01T02:34:27;96270;;;22.52;51.26
2711;BME280;20721;47.402;8.550;2022-08-01T02:35:24;96268;;;22.54;51.30
2711;BME280;20721;47.402;8.550;2022-08-01T02:37:23;96272;;;22.53;51.34
2711;BME280;20721;47.402;8.550;2022-08-01T02:38:24;96276;;;22.54;51.41
2711;BME280;20721;47.402;8.550;2022-08-01T02:39:23;96279;;;22.55;51.33
2711;BME280;20721;47.402;8.550;2022-08-01T02:40:24;96278;;;22.56;51.38
2711;BME280;20721;47.402;8.550;2022-08-01T02:41:26;96275;;;22.55;51.28
2711;BME280;20721;47.402;8.550;2022-08-01T02:42:25;96276;;;22.53;51.41
2711;BME280;20721;47.402;8.550;2022-08-01T02:43:24;96274;;;22.51;51.60
2711;BME280;20721;47.402;8.550;2022-08-01T02:44:24;96276;;;22.47;51.63
2711;BME280;20721;47.402;8.550;2022-08-01T02:45:24;96278;;;22.45;51.67
2711;BME280;20721;47.402;8.550;2022-08-01T02:46:25;96280;;;22.47;51.69
2711;BME280;20721;47.402;8.550;2022-08-01T02:48:24;96278;;;22.45;51.60
2711;BME280;20721;47.402;8.550;2022-08-01T02:49:24;96280;;;22.42;51.69
2711;BME280;20721;47.402;8.550;2022-08-01T02:50:23;96279;;;22.36;51.86
2711;BME280;20721;47.402;8.550;2022-08-01T02:51:23;96281;;;22.23;52.23
2711;BME280;20721;47.402;8.550;2022-08-01T02:52:23;96274;;;22.16;52.45
2711;BME280;20721;47.402;8.550;2022-08-01T02:53:36;96280;;;22.06;52.78
2711;BME280;20721;47.402;8.550;2022-08-01T02:54:23;96280;;;22.01;52.85
2711;BME280;20721;47.402;8.550;2022-08-01T02:55:23;96281;;;21.95;53.09
2711;BME280;20721;47.402;8.550;2022-08-01T02:56:23;96275;;;21.86;53.26
2711;BME280;20721;47.402;8.550;2022-08-01T02:57:29;96280;;;21.79;53.52
2711;BME280;20721;47.402;8.550;2022-08-01T02:58:30;96278;;;21.65;53.91
2711;BME280;20721;47.402;8.550;2022-08-01T02:59:25;96274;;;21.63;53.97
2711;BME280;20721;47.402;8.550;2022-08-01T03:00:25;96278;;;21.66;53.99
2711;BME280;20721;47.402;8.550;2022-08-01T03:01:27;96277;;;21.71;53.82
2711;BME280;20721;47.402;8.550;2022-08-01T03:02:23;96278;;;21.78;53.61
2711;BME280;20721;47.402;8.550;2022-08-01T03:03:24;96276;;;21.84;53.51
2711;BME280;20721;47.402;8.550;2022-08-01T03:04:24;96274;;;21.92;53.37
2711;BME280;20721;47.402;8.550;2022-08-01T03:05:24;96272;;;22.00;53.26
2711;BME280;20721;47.402;8.550;2022-08-01T03:06:23;96273;;;22.05;53.38
2711;BME280;20721;47.402;8.550;2022-08-01T03:07:23;96268;;;22.10;53.39
2711;BME280;20721;47.402;8.550;2022-08-01T03:08:24;96269;;;22.12;53.50
2711;BME280;20721;47.402;8.550;2022-08-01T03:09:24;96271;;;22.14;53.54
2711;BME280;20721;47.402;8.550;2022-08-01T03:10:24;96270;;;22.11;53.60
2711;BME280;20721;47.402;8.550;2022-08-01T03:11:28;96271;;;22.05;54.02
2711;BME280;20721;47.402;8.550;2022-08-01T03:12:25;96268;;;21.93;54.66
2711;BME280;20721;47.402;8.550;2022-08-01T03:13:23;96271;;;21.84;55.25
2711;BME280;20721;47.402;8.550;2022-08-01T03:14:25;96268;;;21.83;55.47
2711;BME280;20721;47.402;8.550;2022-08-01T03:15:24;96270;;;21.82;55.58
2711;BME280;20721;47.402;8.550;2022-08-01T03:16:23;96271;;;21.84;55.59
2711;BME280;20721;47.402;8.550;2022-08-01T03:17:24;96270;;;21.89;55.46
2711;BME280;20721;47.402;8.550;2022-08-01T03:18:24;96270;;;21.95;55.23
2711;BME280;20721;47.402;8.550;2022-08-01T03:19:24;96271;;;22.00;55.29
2711;BME280;20721;47.402;8.550;2022-08-01T03:20:24;96270;;;22.03;55.14
2711;BME280;20721;47.402;8.550;2022-08-01T03:21:23;96266;;;22.09;55.21
2711;BME280;20721;47.402;8.550;2022-08-01T03:22:24;96267;;;22.16;55.03
2711;BME280;20721;47.402;8.550;2022-08-01T03:23:34;96265;;;22.18;55.00
2711;BME280;20721;47.402;8.550;2022-08-01T03:25:23;96267;;;22.15;55.26
2711;BME280;20721;47.402;8.550;2022-08-01T03:26:24;96269;;;22.12;55.33
2711;BME280;20721;47.402;8.550;2022-08-01T03:27:24;96268;;;22.05;55.59
2711;BME280;20721;47.402;8.550;2022-08-01T03:28:30;96270;;;21.99;55.76
2711;BME280;20721;47.402;8.550;2022-08-01T03:29:25;96271;;;21.91;56.12
2711;BME280;20721;47.402;8.550;2022-08-01T03:30:23;96273;;;21.90;56.36
2711;BME280;20721;47.402;8.550;2022-08-01T03:31:23;96275;;;21.88;56.43
2711;BME280;20721;47.402;8.550;2022-08-01T03:32:23;96276;;;21.87;56.46
2711;BME280;20721;47.402;8.550;2022-08-01T03:33:23;96276;;;21.88;56.24
2711;BME280;20721;47.402;8.550;2022-08-01T03:34:24;96276;;;21.92;56.31
2711;BME280;20721;47.402;8.550;2022-08-01T03:35:26;96277;;;21.96;56.12
2711;BME280;20721;47.402;8.550;2022-08-01T03:36:25;96276;;;21.99;56.10
2711;BME280;20721;47.402;8.550;2022-08-01T03:37:25;96273;;;21.98;56.08
2711;BME280;20721;47.402;8.550;2022-08-01T03:38:24;96278;;;21.97;56.13
2711;BME280;20721;47.402;8.550;2022-08-01T03:40:24;96276;;;21.96;56.15
2711;BME280;20721;47.402;8.550;2022-08-01T03:42:25;96277;;;21.99;56.19
2711;BME280;20721;47.402;8.550;2022-08-01T03:43:32;96278;;;22.02;56.09
2711;BME280;20721;47.402;8.550;2022-08-01T03:45:25;96281;;;21.99;56.32
2711;BME280;20721;47.402;8.550;2022-08-01T03:46:28;96280;;;21.89;56.63
2711;BME280;20721;47.402;8.550;2022-08-01T03:47:24;96281;;;21.81;56.99
2711;BME280;20721;47.402;8.550;2022-08-01T03:48:28;96280;;;21.77;57.05
2711;BME280;20721;47.402;8.550;2022-08-01T03:49:25;96282;;;21.76;57.08
2711;BME280;20721;47.402;8.550;2022-08-01T03:50:24;96280;;;21.78;56.54
2711;BME280;20721;47.402;8.550;2022-08-01T03:51:23;96280;;;21.74;55.78
2711;BME280;20721;47.402;8.550;2022-08-01T03:52:27;96279;;;21.70;55.57
2711;BME280;20721;47.402;8.550;2022-08-01T03:53:24;96275;;;21.66;55.64
2711;BME280;20721;47.402;8.550;2022-08-01T03:54:24;96275;;;21.63;55.66
2711;BME280;20721;47.402;8.550;2022-08-01T03:55:23;96276;;;21.62;55.66
2711;BME280;20721;47.402;8.550;2022-08-01T03:57:33;96277;;;21.65;55.62
2711;BME280;20721;47.402;8.550;2022-08-01T03:58:23;96277;;;21.66;55.82
2711;BME280;20721;47.402;8.550;2022-08-01T03:59:23;96276;;;21.64;55.99
2711;BME280;20721;47.402;8.550;2022-08-01T04:00:24;96272;;;21.60;55.95
2711;BME280;20721;47.402;8.550;2022-08-01T04:01:24;96274;;;21.54;56.37
2711;BME280;20721;47.402;8.550;2022-08-01T04:02:25;96275;;;21.51;56.35
2711;BME280;20721;47.402;8.550;2022-08-01T04:03:24;96273;;;21.49;56.71
2711;BME280;20721;47.402;8.550;2022-08-01T04:04:23;96276;;;21.48;56.84
2711;BME280;20721;47.402;8.550;2022-08-01T04:06:23;96277;;;21.51;56.82
2711;BME280;20721;47.402;8.550;2022-08-01T04:07:25;96275;;;21.54;56.66
2711;BME280;20721;47.402;8.550;2022-08-01T04:08:34;96274;;;21.59;56.50
2711;BME280;20721;47.402;8.550;2022-08-01T04:09:23;96275;;;21.63;56.31
2711;BME280;20721;47.402;8.550;2022-08-01T04:10:23;96277;;;21.68;56.35
2711;BME280;20721;47.402;8.550;2022-08-01T04:11:24;96279;;;21.70;56.43
2711;BME280;20721;47.402;8.550;2022-08-01T04:12:23;96277;;;21.71;56.46
2711;BME280;20721;47.402;8.550;2022-08-01T04:15:23;96278;;;21.69;56.32
2711;BME280;20721;47.402;8.550;2022-08-01T04:16:24;96276;;;21.66;56.50
2711;BME280;20721;47.402;8.550;2022-08-01T04:17:23;96274;;;21.64;56.32
2711;BME280;20721;47.402;8.550;2022-08-01T04:18:24;96274;;;21.62;56.26
2711;BME280;20721;47.402;8.550;2022-08-01T04:19:24;96272;;;21.63;56.39
2711;BME280;20721;47.402;8.550;2022-08-01T04:20:25;96275;;;21.61;56.30
2711;BME280;20721;47.402;8.550;2022-08-01T04:21:25;96273;;;21.59;56.26
2711;BME280;20721;47.402;8.550;2022-08-01T04:22:23;96280;;;21.60;56.15
2711;BME280;20721;47.402;8.550;2022-08-01T04:23:24;96281;;;21.62;56.13
2711;BME280;20721;47.402;8.550;2022-08-01T04:24:23;96282;;;21.66;56.00
2711;BME280;20721;47.402;8.550;2022-08-01T04:25:29;96285;;;21.71;55.90
2711;BME280;20721;47.402;8.550;2022-08-01T04:26:23;96286;;;21.75;55.68
2711;BME280;20721;47.402;8.550;2022-08-01T04:27:35;96286;;;21.79;55.50
2711;BME280;20721;47.402;8.550;2022-08-01T04:28:24;96290;;;21.83;55.41
2711;BME280;20721;47.402;8.550;2022-08-01T04:29:23;96286;;;21.87;55.39
2711;BME280;20721;47.402;8.550;2022-08-01T04:30:26;96290;;;21.92;55.22
2711;BME280;20721;47.402;8.550;2022-08-01T04:31:25;96290;;;21.96;55.09
2711;BME280;20721;47.402;8.550;2022-08-01T04:33:24;96290;;;21.92;55.19
2711;BME280;20721;47.402;8.550;2022-08-01T04:34:24;96292;;;21.90;55.26
2711;BME280;20721;47.402;8.550;2022-08-01T04:35:34;96291;;;21.85;55.43
2711;BME280;20721;47.402;8.550;2022-08-01T04:36:24;96293;;;21.84;55.41
2711;BME280;20721;47.402;8.550;2022-08-01T04:37:25;96295;;;21.81;55.58
2711;BME280;20721;47.402;8.550;2022-08-01T04:38:27;96299;;;21.80;55.57
2711;BME280;20721;47.402;8.550;2022-08-01T04:39:24;96300;;;21.77;55.76
2711;BME280;20721;47.402;8.550;2022-08-01T04:40:24;96298;;;21.78;55.72
2711;BME280;20721;47.402;8.550;2022-08-01T04:41:24;96300;;;21.75;55.90
2711;BME280;20721;47.402;8.550;2022-08-01T04:42:33;96302;;;21.72;55.95
2711;BME280;20721;47.402;8.550;2022-08-01T04:43:24;96304;;;21.70;56.06
2711;BME280;20721;47.402;8.550;2022-08-01T04:44:24;96303;;;21.68;56.26
2711;BME280;20721;47.402;8.550;2022-08-01T04:45:24;96308;;;21.65;56.33
2711;BME280;20721;47.402;8.550;2022-08-01T04:46:24;96306;;;21.61;56.51
2711;BME280;20721;47.402;8.550;2022-08-01T04:47:25;96306;;;21.59;56.65
2711;BME280;20721;47.402;8.550;2022-08-01T04:48:24;96308;;;21.57;56.76
2711;BME280;20721;47.402;8.550;2022-08-01T04:50:24;96308;;;21.59;56.67
2711;BME280;20721;47.402;8.550;2022-08-01T04:52:32;96307;;;21.61;56.78
2711;BME280;20721;47.402;8.550;2022-08-01T04:53:26;96312;;;21.63;56.68
2711;BME280;20721;47.402;8.550;2022-08-01T04:54:24;96310;;;21.62;56.72
2711;BME280;20721;47.402;8.550;2022-08-01T04:56:24;96313;;;21.63;56.74
2711;BME280;20721;47.402;8.550;2022-08-01T04:58:24;96315;;;21.65;56.86
2711;BME280;20721;47.402;8.550;2022-08-01T05:00:24;96317;;;21.67;56.75
2711;BME280;20721;47.402;8.550;2022-08-01T05:01:24;96320;;;21.71;56.72
2711;BME280;20721;47.402;8.550;2022-08-01T05:02:29;96318;;;21.68;56.81
2711;BME280;20721;47.402;8.550;2022-08-01T05:03:24;96318;;;21.67;56.88
2711;BME280;20721;47.402;8.550;2022-08-01T05:04:24;96315;;;21.63;56.98
2711;BME280;20721;47.402;8.550;2022-08-01T05:05:26;96315;;;21.59;57.14
2711;BME280;20721;47.402;8.550;2022-08-01T05:06:24;96316;;;21.57;57.18
2711;BME280;20721;47.402;8.550;2022-08-01T05:07:24;96315;;;21.55;57.08
2711;BME280;20721;47.402;8.550;2022-08-01T05:09:30;96320;;;21.54;57.17
2711;BME280;20721;47.402;8.550;2022-08-01T05:10:24;96323;;;21.55;57.21
2711;BME280;20721;47.402;8.550;2022-08-01T05:11:24;96325;;;21.57;57.34
2711;BME280;20721;47.402;8.550;2022-08-01T05:12:24;96320;;;21.62;57.24
2711;BME280;20721;47.402;8.550;2022-08-01T05:13:24;96324;;;21.70;56.93
2711;BME280;20721;47.402;8.550;2022-08-01T05:14:24;96323;;;21.77;56.71
2711;BME280;20721;47.402;8.550;2022-08-01T05:15:24;96324;;;21.85;56.57
2711;BME280;20721;47.402;8.550;2022-08-01T05:16:24;96320;;;21.89;56.62
2711;BME280;20721;47.402;8.550;2022-08-01T05:17:24;96320;;;21.94;56.36
2711;BME280;20721;47.402;8.550;2022-08-01T05:18:28;96320;;;21.96;56.40
2711;BME280;20721;47.402;8.550;2022-08-01T05:19:24;96319;;;22.00;56.28
2711;BME280;20721;47.402;8.550;2022-08-01T05:20:24;96324;;;22.04;56.36
2711;BME280;20721;47.402;8.550;2022-08-01T05:21:24;96323;;;22.07;56.24
2711;BME280;20721;47.402;8.550;2022-08-01T05:22:25;96322;;;22.11;55.98
2711;BME280;20721;47.402;8.550;2022-08-01T05:23:33;96325;;;22.16;56.02
2711;BME280;20721;47.402;8.550;2022-08-01T05:24:24;96322;;;22.22;55.94
2711;BME280;20721;47.402;8.550;2022-08-01T05:25:34;96319;;;22.24;55.57
2711;BME280;20721;47.402;8.550;2022-08-01T05:26:24;96324;;;22.26;55.60
2711;BME280;20721;47.402;8.550;2022-08-01T05:27:26;96323;;;22.30;55.49
2711;BME280;20721;47.402;8.550;2022-08-01T05:28:24;96326;;;22.35;55.50
2711;BME280;20721;47.402;8.550;2022-08-01T05:29:24;96325;;;22.39;55.04
2711;BME280;20721;47.402;8.550;2022-08-01T05:30:24;96325;;;22.43;55.02
2711;BME280;20721;47.402;8.550;2022-08-01T05:31:24;96323;;;22.47;54.81
2711;BME280;20721;47.402;8.550;2022-08-01T05:32:24;96321;;;22.52;54.76
2711;BME280;20721;47.402;8.550;2022-08-01T05:33:24;96324;;;22.56;54.55
2711;BME280;20721;47.402;8.550;2022-08-01T05:34:24;96320;;;22.58;54.24
2711;BME280;20721;47.402;8.550;2022-08-01T05:35:34;96321;;;22.61;54.28
2711;BME280;20721;47.402;8.550;2022-08-01T05:36:24;96324;;;22.63;54.36
2711;BME280;20721;47.402;8.550;2022-08-01T05:37:24;96323;;;22.71;54.08
2711;BME280;20721;47.402;8.550;2022-08-01T05:38:24;96321;;;22.78;53.92
2711;BME280;20721;47.402;8.550;2022-08-01T05:39:28;96321;;;22.84;53.60
2711;BME280;20721;47.402;8.550;2022-08-01T05:40:24;96320;;;22.90;53.47
2711;BME280;20721;47.402;8.550;2022-08-01T05:41:24;96322;;;22.97;53.40
2711;BME280;20721;47.402;8.550;2022-08-01T05:42:24;96323;;;23.03;53.16
2711;BME280;20721;47.402;8.550;2022-08-01T05:43:29;96323;;;23.12;52.97
2711;BME280;20721;47.402;8.550;2022-08-01T05:44:25;96327;;;23.20;52.89
2711;BME280;20721;47.402;8.550;2022-08-01T05:45:24;96326;;;23.22;52.56
2711;BME280;20721;47.402;8.550;2022-08-01T05:46:27;96326;;;23.25;52.42
2711;BME280;20721;47.402;8.550;2022-08-01T05:47:24;96327;;;23.28;52.46
2711;BME280;20721;47.402;8.550;2022-08-01T05:48:24;96326;;;23.32;52.37
2711;BME280;20721;47.402;8.550;2022-08-01T05:49:24;96326;;;23.39;52.16
2711;BME280;20721;47.402;8.550;2022-08-01T05:50:24;96325;;;23.43;52.13
2711;BME280;20721;47.402;8.550;2022-08-01T05:51:24;96326;;;23.52;52.14
2711;BME280;20721;47.402;8.550;2022-08-01T05:52:24;96327;;;23.54;51.94
2711;BME280;20721;47.402;8.550;2022-08-01T05:53:24;96325;;;23.61;51.80
2711;BME280;20721;47.402;8.550;2022-08-01T05:54:24;96327;;;23.67;51.73
2711;BME280;20721;47.402;8.550;2022-08-01T05:55:24;96326;;;23.74;51.56
2711;BME280;20721;47.402;8.550;2022-08-01T05:56:24;96329;;;23.82;51.29
2711;BME280;20721;47.402;8.550;2022-08-01T05:57:24;96327;;;23.90;51.24
2711;BME280;20721;47.402;8.550;2022-08-01T05:58:24;96328;;;23.85;51.08
2711;BME280;20721;47.402;8.550;2022-08-01T06:00:24;96324;;;23.86;51.05
2711;BME280;20721;47.402;8.550;2022-08-01T06:01:24;96324;;;23.92;51.13
2711;BME280;20721;47.402;8.550;2022-08-01T06:02:24;96325;;;23.95;51.14
2711;BME280;20721;47.402;8.550;2022-08-01T06:03:24;96323;;;24.02;50.47
2711;BME280;20721;47.402;8.550;2022-08-01T06:04:24;96328;;;24.06;50.58
2711;BME280;20721;47.402;8.550;2022-08-01T06:05:24;96324;;;24.12;50.59
2711;BME280;20721;47.402;8.550;2022-08-01T06:06:25;96324;;;24.17;50.54
2711;BME280;20721;47.402;8.550;2022-08-01T06:07:24;96329;;;24.26;50.54
2711;BME280;20721;47.402;8.550;2022-08-01T06:08:24;96331;;;24.35;50.33
2711;BME280;20721;47.402;8.550;2022-08-01T06:09:24;96327;;;24.43;49.95
2711;BME280;20721;47.402;8.550;2022-08-01T06:10:24;96329;;;24.47;49.61
2711;BME280;20721;47.402;8.550;2022-08-01T06:11:24;96326;;;24.52;49.75
2711;BME280;20721;47.402;8.550;2022-08-01T06:12:24;96328;;;24.50;49.13
2711;BME280;20721;47.402;8.550;2022-08-01T06:13:24;96328;;;24.54;49.45
2711;BME280;20721;47.402;8.550;2022-08-01T06:14:24;96332;;;24.62;49.37
2711;BME280;20721;47.402;8.550;2022-08-01T06:15:24;96331;;;24.71;49.30
2711;BME280;20721;47.402;8.550;2022-08-01T06:16:29;96330;;;24.82;48.89
2711;BME280;20721;47.402;8.550;2022-08-01T06:17:24;96331;;;24.87;48.67
2711;BME280;20721;47.402;8.550;2022-08-01T06:18:24;96331;;;24.93;48.75
2711;BME280;20721;47.402;8.550;2022-08-01T06:19:24;96328;;;24.98;48.17
2711;BME280;20721;47.402;8.550;2022-08-01T06:20:24;96328;;;25.03;48.32